Time;durP1;ratioP1;P1;durP2;ratioP2;P2;SDS_P1;SDS_P2;PMS_P1;PMS_P2;Temp;Humidity;BMP_temperature;BMP_pressure;BME280_temperature;BME280_humidity;BME280_pressure;Samples;Min_cycle;Max_cycle;Signal;HPM_P1;HPM_P2
2021/08/19 00:01:47;;;;;;;12.52;8.93;;;15.90;99.90;;;;;;5009480;28;20617;-71
2021/08/19 00:04:13;;;;;;;15.43;9.45;;;16.00;99.90;;;;;;5027018;28;20111;-71
2021/08/19 00:06:38;;;;;;;12.27;8.30;;;15.90;99.90;;;;;;5011159;28;20065;-71
2021/08/19 00:09:04;;;;;;;12.75;8.35;;;15.90;99.90;;;;;;5028481;28;20167;-71
2021/08/19 00:11:30;;;;;;;12.48;8.18;;;15.90;99.90;;;;;;5026887;28;20041;-71
2021/08/19 00:13:55;;;;;;;11.00;7.38;;;15.80;99.90;;;;;;5010916;28;20253;-71
2021/08/19 00:16:21;;;;;;;12.00;8.07;;;15.80;99.90;;;;;;5030289;28;20026;-71
2021/08/19 00:18:47;;;;;;;10.98;8.13;;;15.80;99.90;;;;;;5011089;28;20076;-71
2021/08/19 00:21:12;;;;;;;10.13;8.00;;;15.80;99.90;;;;;;5025352;28;20116;-71
2021/08/19 00:23:38;;;;;;;12.27;8.55;;;15.80;99.90;;;;;;5027571;28;20406;-71
2021/08/19 00:26:05;;;;;;;12.02;7.78;;;15.70;99.90;;;;;;5025537;28;20033;-71
2021/08/19 00:28:31;;;;;;;12.80;8.35;;;15.80;99.90;;;;;;5009787;28;20034;-71
2021/08/19 00:30:57;;;;;;;12.65;8.88;;;15.80;99.90;;;;;;5012164;28;20483;-71
2021/08/19 00:33:24;;;;;;;10.80;8.52;;;15.80;99.90;;;;;;5028000;28;20089;-71
2021/08/19 00:35:49;;;;;;;14.40;8.88;;;15.80;99.90;;;;;;5029383;28;20037;-71
2021/08/19 00:38:15;;;;;;;15.95;9.25;;;15.70;99.90;;;;;;5007683;28;20029;-71
2021/08/19 00:40:41;;;;;;;11.38;8.23;;;15.70;99.90;;;;;;5028488;28;20028;-71
2021/08/19 00:43:07;;;;;;;11.40;8.40;;;15.60;99.90;;;;;;4992026;28;20124;-71
2021/08/19 00:45:35;;;;;;;11.90;8.27;;;15.60;99.90;;;;;;5026546;28;20107;-71
2021/08/19 00:48:01;;;;;;;12.63;7.85;;;15.60;99.90;;;;;;5027405;28;20029;-71
2021/08/19 00:50:27;;;;;;;13.00;8.05;;;15.60;99.90;;;;;;5027195;28;20479;-71
2021/08/19 00:52:53;;;;;;;11.75;8.27;;;15.60;99.90;;;;;;5028148;28;20472;-71
2021/08/19 00:55:20;;;;;;;11.27;8.30;;;15.60;99.90;;;;;;4993231;28;20128;-71
2021/08/19 00:57:46;;;;;;;15.32;8.75;;;15.50;99.90;;;;;;5026773;28;20498;-71
2021/08/19 01:00:13;;;;;;;16.95;8.88;;;15.50;99.90;;;;;;5025368;28;20061;-71
2021/08/19 01:02:42;;;;;;;13.73;8.88;;;15.50;99.90;;;;;;5021731;28;20546;-71
2021/08/19 01:05:09;;;;;;;9.98;7.72;;;15.50;99.90;;;;;;5010610;28;20025;-71
2021/08/19 01:07:35;;;;;;;13.52;7.72;;;15.50;99.90;;;;;;5026270;28;20079;-71
2021/08/19 01:10:01;;;;;;;15.20;8.23;;;15.60;99.90;;;;;;5010716;28;20033;-71
2021/08/19 01:12:27;;;;;;;12.35;8.10;;;15.60;99.90;;;;;;5024283;28;20084;-71
2021/08/19 01:14:53;;;;;;;14.75;8.77;;;15.60;99.90;;;;;;5010455;28;20030;-71
2021/08/19 01:17:18;;;;;;;12.88;7.95;;;15.60;99.90;;;;;;5026350;28;20033;-71
2021/08/19 01:19:49;;;;;;;12.68;8.25;;;15.60;99.90;;;;;;5024831;28;20057;-71
2021/08/19 01:22:16;;;;;;;15.00;8.70;;;15.60;99.90;;;;;;5007847;28;20033;-71
2021/08/19 01:24:42;;;;;;;10.90;8.45;;;15.60;99.90;;;;;;5010568;28;20033;-71
2021/08/19 01:27:13;;;;;;;11.70;8.00;;;15.60;99.90;;;;;;5026962;28;20104;-71
2021/08/19 01:29:42;;;;;;;16.95;8.00;;;15.60;99.90;;;;;;5024806;28;20025;-71
2021/08/19 01:32:08;;;;;;;12.07;8.30;;;15.60;99.90;;;;;;5006108;28;20037;-71
2021/08/19 01:34:34;;;;;;;12.65;8.90;;;15.60;99.90;;;;;;5027638;28;20124;-71
2021/08/19 01:37:00;;;;;;;10.25;7.78;;;15.60;99.90;;;;;;5008219;28;20072;-71
2021/08/19 01:39:27;;;;;;;13.15;8.25;;;15.60;99.90;;;;;;5027099;28;20070;-71
2021/08/19 01:41:52;;;;;;;15.40;7.90;;;15.60;99.90;;;;;;5045033;23;20414;-67
2021/08/19 01:44:18;;;;;;;10.82;8.18;;;15.70;99.80;;;;;;5037849;28;20215;-67
2021/08/19 01:46:49;;;;;;;21.85;8.18;;;15.60;99.80;;;;;;5038176;28;20048;-67
2021/08/19 01:49:15;;;;;;;15.45;9.02;;;15.60;99.80;;;;;;5037802;28;20029;-67
2021/08/19 01:51:41;;;;;;;13.05;8.85;;;15.60;99.80;;;;;;5035437;28;20087;-67
2021/08/19 01:54:06;;;;;;;14.43;8.68;;;15.60;99.70;;;;;;5036227;28;20716;-67
2021/08/19 01:56:32;;;;;;;10.25;7.90;;;15.50;99.60;;;;;;5038484;28;20104;-66
2021/08/19 01:58:58;;;;;;;9.82;7.75;;;15.60;99.80;;;;;;5039705;28;20079;-67
2021/08/19 02:01:25;;;;;;;12.65;7.85;;;15.60;99.80;;;;;;5037269;28;20087;-67
2021/08/19 02:03:52;;;;;;;10.70;7.35;;;15.60;99.80;;;;;;5039723;28;20050;-66
2021/08/19 02:06:18;;;;;;;12.90;7.75;;;15.60;99.60;;;;;;5039094;28;20388;-67
2021/08/19 02:08:44;;;;;;;10.30;6.95;;;15.60;99.40;;;;;;5017661;28;20056;-67
2021/08/19 02:11:10;;;;;;;12.55;7.10;;;15.60;99.60;;;;;;5036424;28;20364;-68
2021/08/19 02:13:36;;;;;;;12.45;7.13;;;15.60;99.60;;;;;;5038787;28;20040;-67
2021/08/19 02:16:02;;;;;;;10.82;7.63;;;15.60;99.60;;;;;;5021869;28;20033;-67
2021/08/19 02:18:28;;;;;;;10.38;7.68;;;15.60;99.50;;;;;;5038933;28;20028;-68
2021/08/19 02:20:54;;;;;;;11.07;7.85;;;15.60;99.50;;;;;;5039486;28;20029;-69
2021/08/19 02:23:19;;;;;;;13.13;8.30;;;15.60;99.50;;;;;;5039093;28;20030;-66
2021/08/19 02:25:45;;;;;;;12.85;8.20;;;15.60;99.40;;;;;;5016222;28;20109;-66
2021/08/19 02:28:11;;;;;;;11.88;8.07;;;15.60;99.50;;;;;;5035829;28;20489;-67
2021/08/19 02:30:37;;;;;;;10.35;7.32;;;15.60;99.70;;;;;;5038910;28;20025;-67
2021/08/19 02:33:03;;;;;;;12.10;8.45;;;15.60;99.70;;;;;;5038254;28;20061;-67
2021/08/19 02:35:30;;;;;;;12.50;9.23;;;15.60;99.70;;;;;;5022779;28;20029;-66
2021/08/19 02:38:02;;;;;;;12.77;8.73;;;15.60;99.80;;;;;;5033031;28;20030;-66
2021/08/19 02:40:29;;;;;;;14.98;10.23;;;15.60;99.90;;;;;;5037672;28;20041;-67
2021/08/19 02:42:55;;;;;;;13.30;10.85;;;15.60;99.90;;;;;;5015010;28;20562;-68
2021/08/19 02:45:21;;;;;;;13.18;10.05;;;15.60;99.90;;;;;;5043209;28;20063;-67
2021/08/19 02:47:47;;;;;;;13.20;9.75;;;15.60;99.90;;;;;;5036159;28;20072;-68
2021/08/19 02:50:13;;;;;;;11.57;9.40;;;15.60;99.90;;;;;;5044556;28;20028;-67
2021/08/19 02:52:39;;;;;;;14.30;9.95;;;15.50;99.90;;;;;;5041420;28;20029;-68
2021/08/19 02:55:06;;;;;;;13.15;9.50;;;15.50;99.90;;;;;;5041554;28;20036;-66
2021/08/19 02:57:32;;;;;;;14.48;10.05;;;15.50;99.90;;;;;;5022883;28;20521;-67
2021/08/19 02:59:58;;;;;;;13.95;9.50;;;15.50;99.90;;;;;;5043265;28;20029;-67
2021/08/19 03:02:24;;;;;;;12.05;8.93;;;15.50;99.90;;;;;;5039341;28;20429;-67
2021/08/19 03:04:50;;;;;;;12.02;7.93;;;15.50;99.90;;;;;;5036124;28;20072;-67
2021/08/19 03:07:16;;;;;;;12.70;8.88;;;15.50;99.90;;;;;;5042403;28;20048;-67
2021/08/19 03:09:41;;;;;;;16.48;10.18;;;15.50;99.90;;;;;;5040968;28;20037;-68
2021/08/19 03:12:07;;;;;;;13.20;9.85;;;15.50;99.90;;;;;;5037356;28;20075;-67
2021/08/19 03:14:34;;;;;;;15.93;9.45;;;15.40;99.90;;;;;;5040019;28;20415;-68
2021/08/19 03:17:01;;;;;;;13.63;8.05;;;15.40;99.90;;;;;;5037084;28;20040;-71
2021/08/19 03:19:27;;;;;;;9.70;7.10;;;15.30;99.90;;;;;;5040002;28;20025;-66
2021/08/19 03:21:53;;;;;;;7.80;5.97;;;15.30;99.90;;;;;;5038809;28;20509;-66
2021/08/19 03:24:19;;;;;;;10.43;6.15;;;15.30;99.90;;;;;;5043157;28;20041;-66
2021/08/19 03:26:44;;;;;;;7.32;5.43;;;15.30;99.90;;;;;;5022576;28;20029;-67
2021/08/19 03:29:11;;;;;;;11.10;6.70;;;15.20;99.90;;;;;;5015802;28;20029;-67
2021/08/19 03:31:37;;;;;;;9.60;5.50;;;15.20;99.90;;;;;;5039448;28;20033;-66
2021/08/19 03:34:03;;;;;;;8.30;4.80;;;15.20;99.90;;;;;;5040494;28;20025;-66
2021/08/19 03:36:28;;;;;;;7.07;5.20;;;15.20;99.90;;;;;;5026979;28;20430;-67
2021/08/19 03:38:54;;;;;;;7.28;5.22;;;15.20;99.90;;;;;;5039506;28;20060;-67
2021/08/19 03:41:21;;;;;;;7.65;4.63;;;15.20;99.90;;;;;;5040774;28;20540;-66
2021/08/19 03:43:47;;;;;;;7.28;4.28;;;15.20;99.90;;;;;;5022663;28;20045;-67
2021/08/19 03:46:14;;;;;;;8.00;4.85;;;15.20;99.90;;;;;;5036510;28;20036;-67
2021/08/19 03:48:40;;;;;;;8.98;4.50;;;15.20;99.90;;;;;;5020736;28;20026;-66
2021/08/19 03:51:07;;;;;;;8.55;4.60;;;15.20;99.90;;;;;;5035445;28;20021;-67
2021/08/19 03:53:35;;;;;;;6.72;4.68;;;15.10;99.90;;;;;;5040320;28;20095;-67
2021/08/19 03:56:00;;;;;;;7.40;4.50;;;15.20;99.90;;;;;;5022457;28;20029;-66
2021/08/19 03:58:26;;;;;;;10.18;5.05;;;15.20;99.90;;;;;;5002478;28;20025;-67
2021/08/19 04:00:52;;;;;;;8.07;4.78;;;15.20;99.90;;;;;;5036382;28;20026;-66
2021/08/19 04:03:18;;;;;;;8.93;5.30;;;15.20;99.90;;;;;;5041722;28;20021;-67
2021/08/19 04:05:43;;;;;;;7.05;4.82;;;15.20;99.90;;;;;;5038790;28;20032;-67
2021/08/19 04:08:09;;;;;;;8.88;5.38;;;15.20;99.90;;;;;;5018257;28;20026;-69
2021/08/19 04:10:35;;;;;;;6.88;5.43;;;15.20;99.90;;;;;;5039681;28;20025;-65
2021/08/19 04:13:01;;;;;;;8.20;5.85;;;15.30;99.90;;;;;;5023348;28;20415;-67
2021/08/19 04:15:26;;;;;;;7.95;5.50;;;15.30;99.90;;;;;;5036129;28;20094;-66
2021/08/19 04:17:52;;;;;;;8.05;5.28;;;15.30;99.90;;;;;;5046364;28;20053;-67
2021/08/19 04:20:19;;;;;;;8.30;5.50;;;15.30;99.90;;;;;;5036254;28;20030;-67
2021/08/19 04:22:45;;;;;;;7.75;5.72;;;15.30;99.90;;;;;;5037409;28;20041;-66
2021/08/19 04:25:11;;;;;;;8.23;5.88;;;15.30;99.90;;;;;;5034668;28;20588;-66
2021/08/19 04:27:38;;;;;;;8.15;5.47;;;15.20;99.90;;;;;;5042023;28;20525;-66
2021/08/19 04:30:05;;;;;;;8.65;5.15;;;15.30;99.90;;;;;;5042430;28;20430;-68
2021/08/19 04:32:31;;;;;;;7.07;5.15;;;15.30;99.90;;;;;;5038680;28;20032;-66
2021/08/19 04:34:56;;;;;;;7.13;5.03;;;15.30;99.90;;;;;;5039260;28;20091;-67
2021/08/19 04:37:22;;;;;;;8.82;5.90;;;15.30;99.90;;;;;;5023659;28;20097;-67
2021/08/19 04:39:48;;;;;;;8.00;5.40;;;15.30;99.90;;;;;;5037446;28;20056;-67
2021/08/19 04:42:14;;;;;;;7.93;6.07;;;15.30;99.90;;;;;;5037201;28;20484;-68
2021/08/19 04:44:40;;;;;;;7.90;5.85;;;15.30;99.90;;;;;;5036687;28;20030;-66
2021/08/19 04:47:06;;;;;;;7.70;6.22;;;15.30;99.90;;;;;;5041163;28;20907;-66
2021/08/19 04:49:32;;;;;;;9.27;5.57;;;15.20;99.90;;;;;;5037910;28;20079;-67
2021/08/19 04:51:57;;;;;;;6.88;5.32;;;15.30;99.90;;;;;;5017574;28;20037;-67
2021/08/19 04:54:23;;;;;;;7.78;5.10;;;15.30;99.90;;;;;;5004787;28;20021;-67
2021/08/19 04:56:49;;;;;;;6.07;4.90;;;15.30;99.90;;;;;;5038399;28;20478;-68
2021/08/19 04:59:15;;;;;;;5.93;4.85;;;15.40;99.90;;;;;;5041714;28;20406;-67
2021/08/19 05:01:41;;;;;;;8.35;5.05;;;15.40;99.90;;;;;;5039038;28;20041;-70
2021/08/19 05:04:07;;;;;;;7.13;5.32;;;15.40;99.90;;;;;;5043087;28;20476;-67
2021/08/19 05:06:34;;;;;;;7.63;5.57;;;15.40;99.90;;;;;;5019235;28;20039;-67
2021/08/19 05:09:04;;;;;;;7.47;5.18;;;15.40;99.90;;;;;;5021246;28;20034;-68
2021/08/19 05:11:29;;;;;;;8.85;5.95;;;15.50;99.90;;;;;;5020355;28;20375;-67
2021/08/19 05:13:58;;;;;;;9.27;6.50;;;15.40;99.90;;;;;;5039037;28;20032;-67
2021/08/19 05:16:28;;;;;;;8.30;6.78;;;15.40;99.90;;;;;;5040818;28;20025;-68
2021/08/19 05:18:54;;;;;;;9.85;7.25;;;15.50;99.90;;;;;;5042481;28;20034;-66
2021/08/19 05:21:21;;;;;;;9.85;7.65;;;15.50;99.90;;;;;;5036393;28;20037;-68
2021/08/19 05:23:47;;;;;;;12.25;8.43;;;15.50;99.90;;;;;;5038530;28;20025;-69
2021/08/19 05:26:13;;;;;;;11.30;8.30;;;15.50;99.90;;;;;;5048661;28;20037;-69
2021/08/19 05:28:39;;;;;;;9.27;7.68;;;15.50;99.90;;;;;;5047201;28;20043;-66
2021/08/19 05:31:05;;;;;;;9.00;7.40;;;15.50;99.90;;;;;;5047412;28;20029;-67
2021/08/19 05:33:30;;;;;;;12.73;7.75;;;15.60;99.90;;;;;;5033893;28;20030;-67
2021/08/19 05:35:56;;;;;;;12.52;8.07;;;15.60;99.90;;;;;;5043988;28;20040;-66
2021/08/19 05:38:22;;;;;;;12.10;9.15;;;15.60;99.90;;;;;;5036481;28;20022;-73
2021/08/19 05:40:48;;;;;;;13.20;7.78;;;15.60;99.90;;;;;;4995313;28;20039;-67
2021/08/19 05:43:14;;;;;;;11.82;7.13;;;15.70;99.90;;;;;;5030803;28;20033;-68
2021/08/19 05:45:41;;;;;;;12.10;8.07;;;15.70;99.90;;;;;;5033184;28;20056;-67
2021/08/19 05:48:07;;;;;;;10.57;7.50;;;15.60;99.90;;;;;;5035899;28;20025;-67
2021/08/19 05:50:33;;;;;;;11.70;7.47;;;15.70;99.90;;;;;;5038646;28;20433;-68
2021/08/19 05:53:00;;;;;;;11.88;8.70;;;15.60;99.90;;;;;;5019056;28;20435;-67
2021/08/19 05:55:26;;;;;;;11.05;7.25;;;15.70;99.90;;;;;;5038145;28;20478;-68
2021/08/19 05:57:52;;;;;;;12.15;8.38;;;15.70;99.90;;;;;;5038694;28;20033;-68
2021/08/19 06:00:22;;;;;;;11.95;9.13;;;15.70;99.90;;;;;;5036120;28;20026;-68
2021/08/19 06:02:51;;;;;;;11.85;7.72;;;15.70;99.90;;;;;;5018731;28;20045;-67
2021/08/19 06:05:18;;;;;;;12.27;7.30;;;15.70;99.90;;;;;;5037723;28;20507;-71
2021/08/19 06:07:44;;;;;;;12.00;8.27;;;15.70;99.90;;;;;;5019768;28;20041;-68
2021/08/19 06:10:12;;;;;;;11.30;7.45;;;15.70;99.90;;;;;;5039803;28;20494;-68
2021/08/19 06:12:37;;;;;;;11.18;7.45;;;15.70;99.90;;;;;;5036737;28;20036;-68
2021/08/19 06:15:05;;;;;;;10.13;7.28;;;15.80;99.90;;;;;;5035134;28;20022;-76
2021/08/19 06:17:33;;;;;;;10.95;7.47;;;15.90;99.90;;;;;;5037156;28;20018;-74
2021/08/19 06:19:59;;;;;;;11.00;6.75;;;16.00;99.90;;;;;;5033062;28;20056;-73
2021/08/19 06:22:25;;;;;;;8.80;6.40;;;16.00;99.90;;;;;;5038417;28;20144;-74
2021/08/19 06:24:51;;;;;;;10.73;5.95;;;16.00;99.90;;;;;;5013431;28;20560;-74
2021/08/19 06:27:17;;;;;;;9.65;6.13;;;16.10;99.90;;;;;;4999109;28;20030;-73
2021/08/19 06:29:43;;;;;;;9.77;5.97;;;16.10;99.90;;;;;;5022390;28;20025;-73
2021/08/19 06:32:09;;;;;;;8.98;6.30;;;16.20;99.90;;;;;;5022950;28;20412;-71
2021/08/19 06:34:35;;;;;;;10.02;6.18;;;16.20;99.90;;;;;;5035182;28;20033;-74
2021/08/19 06:37:01;;;;;;;9.75;6.55;;;16.20;99.90;;;;;;5015624;28;20045;-74
2021/08/19 06:39:27;;;;;;;9.80;5.75;;;16.20;99.90;;;;;;5016996;28;20026;-75
2021/08/19 06:41:53;;;;;;;10.55;6.45;;;16.20;99.90;;;;;;5020128;28;20040;-74
2021/08/19 06:44:18;;;;;;;8.80;5.85;;;16.30;99.90;;;;;;5036182;28;20029;-72
2021/08/19 06:46:44;;;;;;;10.23;7.00;;;16.20;99.90;;;;;;5037528;28;20080;-70
2021/08/19 06:49:10;;;;;;;13.45;8.00;;;16.20;99.90;;;;;;5036634;28;20040;-69
2021/08/19 06:51:36;;;;;;;10.70;6.60;;;16.20;99.90;;;;;;5035404;28;20930;-69
2021/08/19 06:54:02;;;;;;;11.63;7.22;;;16.20;99.90;;;;;;5019949;28;20029;-72
2021/08/19 06:56:27;;;;;;;11.88;7.72;;;16.20;99.90;;;;;;5037317;28;20079;-73
2021/08/19 06:58:54;;;;;;;9.35;6.50;;;16.20;99.90;;;;;;5019291;28;20026;-71
2021/08/19 07:01:19;;;;;;;10.80;6.72;;;16.30;99.90;;;;;;5017932;28;20499;-68
2021/08/19 07:03:45;;;;;;;11.35;6.07;;;16.30;99.70;;;;;;5035464;28;20128;-69
2021/08/19 07:06:12;;;;;;;11.77;6.68;;;16.30;99.80;;;;;;5034198;28;20040;-69
2021/08/19 07:08:38;;;;;;;8.50;5.72;;;16.30;99.80;;;;;;5020760;28;20534;-72
2021/08/19 07:11:03;;;;;;;9.27;5.72;;;16.30;99.50;;;;;;5018808;28;20105;-72
2021/08/19 07:13:29;;;;;;;8.52;5.85;;;16.30;99.40;;;;;;5040768;28;20100;-72
2021/08/19 07:15:55;;;;;;;7.97;5.40;;;16.20;99.30;;;;;;5014807;28;20877;-72
2021/08/19 07:18:21;;;;;;;7.93;5.20;;;16.20;99.50;;;;;;5030307;28;20367;-72
2021/08/19 07:20:46;;;;;;;7.28;4.60;;;16.30;99.50;;;;;;5038704;28;20036;-72
2021/08/19 07:23:12;;;;;;;6.40;4.28;;;16.30;98.90;;;;;;5039740;28;20037;-72
2021/08/19 07:25:38;;;;;;;5.97;3.95;;;16.40;99.10;;;;;;5031933;28;20091;-73
2021/08/19 07:28:04;;;;;;;6.53;3.97;;;16.40;99.20;;;;;;5016257;28;20032;-72
2021/08/19 07:30:30;;;;;;;6.20;3.75;;;16.50;99.10;;;;;;5018447;28;20071;-72
2021/08/19 07:32:56;;;;;;;6.63;4.38;;;16.60;99.00;;;;;;5036208;28;20025;-78
2021/08/19 07:35:22;;;;;;;5.28;3.60;;;16.70;98.80;;;;;;5035287;28;20395;-71
2021/08/19 07:37:50;;;;;;;5.78;4.25;;;16.70;98.80;;;;;;5041872;28;20025;-71
2021/08/19 07:40:18;;;;;;;4.93;3.20;;;16.80;98.80;;;;;;5031863;28;20029;-71
2021/08/19 07:42:44;;;;;;;5.82;3.88;;;16.80;98.80;;;;;;5024835;28;20044;-71
2021/08/19 07:45:11;;;;;;;4.55;3.47;;;16.90;98.90;;;;;;5040693;28;20055;-70
2021/08/19 07:47:37;;;;;;;4.40;3.25;;;17.00;98.60;;;;;;5040915;28;20034;-72
2021/08/19 07:50:04;;;;;;;5.45;3.13;;;17.00;98.80;;;;;;5021147;28;20527;-71
2021/08/19 07:52:29;;;;;;;8.07;4.20;;;17.00;98.80;;;;;;5040711;28;20029;-70
2021/08/19 07:54:56;;;;;;;6.60;4.40;;;17.00;98.40;;;;;;5040164;28;20325;-70
2021/08/19 07:57:22;;;;;;;5.15;3.90;;;17.00;98.40;;;;;;5037874;28;20052;-71
2021/08/19 07:59:47;;;;;;;6.22;3.83;;;17.00;98.40;;;;;;5037782;28;20117;-70
2021/08/19 08:02:13;;;;;;;4.88;3.80;;;17.00;98.20;;;;;;5040947;28;20029;-69
2021/08/19 08:04:39;;;;;;;7.43;4.60;;;17.00;98.20;;;;;;5022241;28;20487;-70
2021/08/19 08:07:05;;;;;;;5.93;3.92;;;17.00;98.30;;;;;;5035313;28;20033;-70
2021/08/19 08:09:31;;;;;;;10.32;4.40;;;16.90;98.20;;;;;;5035205;28;20092;-70
2021/08/19 08:11:57;;;;;;;7.22;4.50;;;16.90;98.40;;;;;;5034220;28;20060;-70
2021/08/19 08:14:22;;;;;;;6.63;4.20;;;16.90;98.00;;;;;;5039875;28;20072;-70
2021/08/19 08:16:49;;;;;;;6.15;4.28;;;16.90;98.00;;;;;;5019568;28;20044;-71
2021/08/19 08:19:16;;;;;;;6.07;4.05;;;16.90;98.10;;;;;;5034000;28;20091;-71
2021/08/19 08:21:42;;;;;;;6.93;4.60;;;17.00;98.20;;;;;;5032300;28;20485;-70
2021/08/19 08:24:08;;;;;;;9.25;5.00;;;16.90;98.30;;;;;;5035441;28;20056;-71
2021/08/19 08:26:35;;;;;;;6.68;4.72;;;16.90;98.30;;;;;;5034435;28;20480;-71
2021/08/19 08:29:01;;;;;;;9.25;5.25;;;16.80;98.60;;;;;;5034659;28;20499;-71
2021/08/19 08:31:27;;;;;;;8.48;4.60;;;16.70;98.90;;;;;;5032970;28;20029;-70
2021/08/19 08:33:54;;;;;;;7.75;4.88;;;16.60;98.90;;;;;;5016085;28;20032;-71
2021/08/19 08:36:19;;;;;;;9.63;5.32;;;16.60;99.10;;;;;;5017065;28;20025;-71
2021/08/19 08:38:45;;;;;;;7.78;4.88;;;16.50;99.20;;;;;;5015635;28;20043;-72
2021/08/19 08:41:12;;;;;;;11.27;5.55;;;16.60;99.30;;;;;;5033296;28;20269;-72
2021/08/19 08:43:39;;;;;;;7.63;5.38;;;16.60;99.40;;;;;;5040062;28;20475;-71
2021/08/19 08:46:10;;;;;;;8.18;4.78;;;16.50;99.40;;;;;;5019052;28;20037;-72
2021/08/19 08:48:37;;;;;;;8.18;4.60;;;16.50;99.50;;;;;;5035233;28;20052;-72
2021/08/19 08:51:03;;;;;;;6.32;4.53;;;16.50;99.60;;;;;;5038869;28;20140;-72
2021/08/19 08:53:29;;;;;;;8.80;5.07;;;16.50;99.70;;;;;;5020024;28;20096;-71
2021/08/19 08:55:55;;;;;;;9.43;5.65;;;16.60;99.70;;;;;;5021135;28;20029;-71
2021/08/19 08:58:21;;;;;;;11.32;5.80;;;16.70;99.60;;;;;;5039148;28;20542;-71
2021/08/19 09:00:47;;;;;;;9.23;5.03;;;16.70;99.10;;;;;;5034021;28;20040;-71
2021/08/19 09:03:16;;;;;;;7.90;4.85;;;16.70;99.20;;;;;;5036076;28;20032;-72
2021/08/19 09:05:47;;;;;;;8.85;4.68;;;16.70;98.90;;;;;;5035274;28;20113;-72
2021/08/19 09:08:18;;;;;;;7.05;4.40;;;16.80;99.00;;;;;;5032133;28;20468;-72
2021/08/19 09:10:45;;;;;;;8.40;4.95;;;16.80;99.10;;;;;;5033249;28;20125;-71
2021/08/19 09:13:15;;;;;;;6.30;4.75;;;16.80;99.10;;;;;;5020793;28;20467;-71
2021/08/19 09:15:41;;;;;;;6.47;5.13;;;16.80;99.10;;;;;;5037741;28;20064;-71
2021/08/19 09:18:07;;;;;;;7.70;5.15;;;16.80;99.30;;;;;;5019954;28;20101;-71
2021/08/19 09:20:47;;;;;;;7.50;4.90;;;16.80;99.30;;;;;;5039886;28;20490;-71
2021/08/19 09:23:22;;;;;;;9.52;5.13;;;16.90;99.30;;;;;;5005106;28;20029;-71
2021/08/19 09:26:02;;;;;;;9.25;4.82;;;16.90;99.40;;;;;;5021664;28;20083;-71
2021/08/19 09:28:37;;;;;;;10.80;5.50;;;16.90;99.40;;;;;;5018536;28;20091;-72
2021/08/19 09:31:17;;;;;;;;;;;16.90;99.80;;;;;;5039383;28;20033;-71
2021/08/19 09:33:49;;;;;;;10.32;5.00;;;16.90;99.90;;;;;;5018808;28;19927;-71
2021/08/19 09:36:35;;;;;;;10.00;5.93;;;16.80;99.90;;;;;;5022417;28;20028;-70
2021/08/19 09:39:08;;;;;;;9.48;5.70;;;16.70;99.90;;;;;;5021866;28;20037;-71
2021/08/19 09:42:10;;;;;;;7.55;5.18;;;16.70;99.90;;;;;;5037128;28;20436;-72
2021/08/19 09:44:44;;;;;;;8.30;4.82;;;16.80;99.90;;;;;;4958195;28;20167;-70
2021/08/19 09:47:30;;;;;;;9.65;5.35;;;16.90;99.90;;;;;;5024352;28;20121;-71
2021/08/19 09:50:29;;;;;;;6.88;5.57;;;17.00;99.90;;;;;;5035531;28;20041;-71
2021/08/19 09:53:24;;;;;;;7.15;4.78;;;17.10;99.80;;;;;;4984919;28;20095;-71
2021/08/19 09:55:54;;;;;;;8.75;4.93;;;17.10;99.70;;;;;;5037505;28;20021;-72
2021/08/19 09:58:32;;;;;;;7.35;5.38;;;17.10;99.70;;;;;;5007575;28;20020;-71
2021/08/19 10:01:01;;;;;;;6.85;4.85;;;17.20;99.70;;;;;;5036811;28;20023;-70
2021/08/19 10:03:33;;;;;;;7.57;5.10;;;17.20;99.60;;;;;;5003251;28;20128;-71
2021/08/19 10:06:02;;;;;;;8.55;5.13;;;17.20;99.80;;;;;;5019327;28;20560;-70
2021/08/19 10:08:28;;;;;;;8.38;5.35;;;17.20;99.70;;;;;;5018652;28;20049;-70
2021/08/19 10:10:55;;;;;;;8.80;5.60;;;17.20;99.70;;;;;;5036606;28;20064;-71
2021/08/19 10:13:21;;;;;;;7.55;5.03;;;17.10;99.50;;;;;;5036945;28;20033;-70
2021/08/19 10:15:52;;;;;;;10.02;5.70;;;17.10;99.70;;;;;;5037388;28;20394;-70
2021/08/19 10:18:23;;;;;;;9.88;5.63;;;17.10;99.60;;;;;;5037705;28;20021;-70
2021/08/19 10:20:59;;;;;;;10.68;5.95;;;17.10;99.60;;;;;;5036799;28;20076;-70
2021/08/19 10:23:26;;;;;;;8.07;6.10;;;17.00;99.30;;;;;;5036816;28;20044;-72
2021/08/19 10:26:05;;;;;;;10.25;5.72;;;17.00;99.20;;;;;;5032487;28;20087;-67
2021/08/19 10:28:47;;;;;;;9.48;5.90;;;17.00;99.30;;;;;;5019125;28;20515;-70
2021/08/19 10:31:14;;;;;;;;;;;17.10;99.20;;;;;;5004627;28;20029;-70
2021/08/19 10:33:39;;;;;;;10.95;6.95;;;17.10;99.10;;;;;;5036289;28;19915;-70
2021/08/19 10:36:28;;;;;;;11.98;6.35;;;17.10;99.00;;;;;;5019985;28;20021;-72
2021/08/19 10:39:19;;;;;;;8.88;6.00;;;17.10;98.80;;;;;;5037871;28;20037;-74
2021/08/19 10:41:45;;;;;;;;;;;17.10;98.80;;;;;;5039675;28;20095;-74
2021/08/19 10:44:13;;;;;;;16.30;6.47;;;17.20;98.90;;;;;;5023675;28;19923;-74
2021/08/19 10:46:44;;;;;;;14.15;6.78;;;17.30;98.80;;;;;;5040828;28;20441;-74
2021/08/19 10:49:30;;;;;;;11.27;6.15;;;17.40;98.60;;;;;;5041756;28;20033;-74
2021/08/19 10:52:16;;;;;;;9.88;5.85;;;17.50;98.30;;;;;;5022073;28;20037;-75
2021/08/19 10:54:50;;;;;;;10.32;6.45;;;17.60;98.20;;;;;;5042260;28;20029;-73
2021/08/19 10:57:27;;;;;;;13.73;6.13;;;17.60;97.90;;;;;;5038951;28;20030;-75
2021/08/19 11:00:12;;;;;;;12.43;6.35;;;17.70;97.90;;;;;;5025434;28;20032;-76
2021/08/19 11:02:48;;;;;;;11.02;5.85;;;17.80;97.80;;;;;;5042471;28;20036;-73
2021/08/19 11:05:20;;;;;;;11.55;5.82;;;17.80;97.60;;;;;;5040839;28;20033;-73
2021/08/19 11:07:50;;;;;;;8.57;5.90;;;17.90;97.50;;;;;;5024376;28;20033;-73
2021/08/19 11:10:52;;;;;;;7.85;5.03;;;18.00;97.60;;;;;;5041562;28;20044;-73
2021/08/19 11:13:18;;;;;;;9.95;5.55;;;18.40;97.60;;;;;;5023034;28;20028;-72
2021/08/19 11:15:49;;;;;;;9.80;5.78;;;18.70;96.30;;;;;;5044297;28;20395;-71
2021/08/19 11:18:27;;;;;;;13.77;5.80;;;19.00;96.10;;;;;;5037780;28;20463;-71
2021/08/19 11:20:54;;;;;;;8.05;4.90;;;19.30;95.30;;;;;;5038966;28;20490;-69
2021/08/19 11:23:30;;;;;;;7.00;4.68;;;19.60;95.00;;;;;;5041776;28;20045;-70
2021/08/19 11:26:05;;;;;;;10.15;5.43;;;19.70;94.80;;;;;;5039618;28;20487;-70
2021/08/19 11:28:50;;;;;;;10.43;5.68;;;19.70;94.20;;;;;;5041124;28;20038;-70
2021/08/19 11:31:22;;;;;;;8.05;4.97;;;20.10;94.90;;;;;;5023807;28;20041;-69
2021/08/19 11:33:57;;;;;;;7.28;4.00;;;22.00;93.60;;;;;;5035789;28;20649;-69
2021/08/19 11:36:24;;;;;;;8.45;4.60;;;23.80;89.60;;;;;;5039467;28;20041;-70
2021/08/19 11:39:02;;;;;;;8.35;5.05;;;24.00;85.50;;;;;;5040861;28;20434;-70
2021/08/19 11:41:29;;;;;;;6.40;4.45;;;23.50;85.70;;;;;;5020509;28;20021;-71
2021/08/19 11:44:00;;;;;;;8.23;4.72;;;22.90;87.70;;;;;;5040230;28;20937;-70
2021/08/19 11:46:27;;;;;;;7.40;4.43;;;22.30;88.80;;;;;;5037322;28;20030;-70
2021/08/19 11:49:13;;;;;;;7.22;4.38;;;21.80;90.10;;;;;;5041055;28;20048;-70
2021/08/19 11:51:41;;;;;;;7.28;4.60;;;21.40;90.70;;;;;;5038534;28;20540;-71
2021/08/19 11:54:13;;;;;;;9.80;5.47;;;21.00;91.40;;;;;;5040428;28;20052;-70
2021/08/19 11:56:48;;;;;;;8.38;4.88;;;20.80;91.80;;;;;;5036306;28;20021;-70
2021/08/19 11:59:15;;;;;;;6.55;4.70;;;20.50;92.20;;;;;;5041517;28;20029;-69
2021/08/19 12:01:52;;;;;;;8.73;5.57;;;20.10;92.60;;;;;;5039086;28;20562;-69
2021/08/19 12:04:35;;;;;;;9.25;5.68;;;19.80;92.50;;;;;;5041065;28;20107;-69
2021/08/19 12:07:04;;;;;;;8.57;5.15;;;19.50;92.00;;;;;;5036370;28;20029;-69
2021/08/19 12:09:32;;;;;;;7.32;4.72;;;19.30;92.90;;;;;;5039983;28;20033;-69
2021/08/19 12:12:03;;;;;;;9.57;4.93;;;19.10;93.30;;;;;;5037734;28;20037;-69
2021/08/19 12:14:28;;;;;;;8.17;5.17;;;18.90;92.90;;;;;;5038531;28;20021;-70
2021/08/19 12:16:56;;;;;;;11.40;5.47;;;18.80;93.70;;;;;;5039605;28;20083;-71
2021/08/19 12:19:26;;;;;;;11.27;5.82;;;18.80;94.20;;;;;;5039198;28;20076;-69
2021/08/19 12:21:52;;;;;;;9.07;4.70;;;18.70;94.30;;;;;;5037331;28;20491;-69
2021/08/19 12:24:32;;;;;;;8.07;4.78;;;18.60;94.50;;;;;;5038918;28;20642;-70
2021/08/19 12:27:01;;;;;;;6.38;4.80;;;18.60;94.70;;;;;;5041459;28;20219;-69
2021/08/19 12:29:28;;;;;;;9.40;5.40;;;18.60;94.90;;;;;;5039201;28;20040;-70
2021/08/19 12:31:54;;;;;;;7.55;5.22;;;18.60;95.20;;;;;;5037257;28;20501;-69
2021/08/19 12:34:20;;;;;;;12.02;5.00;;;18.50;95.20;;;;;;5019884;28;20097;-69
2021/08/19 12:36:47;;;;;;;10.25;5.93;;;18.50;95.20;;;;;;5040252;28;20036;-70
2021/08/19 12:39:17;;;;;;;8.68;5.22;;;18.50;94.90;;;;;;5040931;28;20044;-70
2021/08/19 12:41:45;;;;;;;9.80;5.10;;;18.50;95.20;;;;;;5037967;28;20033;-70
2021/08/19 12:44:12;;;;;;;8.02;5.03;;;18.50;95.30;;;;;;5023376;28;20052;-70
2021/08/19 12:46:40;;;;;;;9.98;5.22;;;18.50;95.30;;;;;;5037432;28;20036;-70
2021/08/19 12:49:25;;;;;;;9.63;5.70;;;18.60;95.50;;;;;;5035690;28;20033;-70